sensor_id;sensor_type;location;lat;lon;timestamp;P1;durP1;ratioP1;P2;durP2;ratioP2
22015;SDS011;11172;51.698;-0.292;2022-08-19T00:00:13;1.02;;;0.93;;
22015;SDS011;11172;51.698;-0.292;2022-08-19T00:02:40;1.13;;;1.00;;
22015;SDS011;11172;51.698;-0.292;2022-08-19T00:05:06;0.90;;;0.85;;
22015;SDS011;11172;51.698;-0.292;2022-08-19T00:07:32;2.13;;;1.63;;
22015;SDS011;11172;51.698;-0.292;2022-08-19T00:09:58;2.72;;;0.93;;
22015;SDS011;11172;51.698;-0.292;2022-08-19T00:12:24;0.98;;;0.90;;
22015;SDS011;11172;51.698;-0.292;2022-08-19T00:14:50;1.75;;;1.20;;
22015;SDS011;11172;51.698;-0.292;2022-08-19T00:17:19;1.45;;;1.08;;
22015;SDS011;11172;51.698;-0.292;2022-08-19T00:19:46;1.73;;;1.10;;
22015;SDS011;11172;51.698;-0.292;2022-08-19T00:22:12;1.63;;;0.98;;
22015;SDS011;11172;51.698;-0.292;2022-08-19T00:24:38;1.92;;;1.73;;
22015;SDS011;11172;51.698;-0.292;2022-08-19T00:27:06;1.52;;;1.33;;
22015;SDS011;11172;51.698;-0.292;2022-08-19T00:29:32;1.58;;;1.25;;
22015;SDS011;11172;51.698;-0.292;2022-08-19T00:31:58;2.50;;;1.27;;
22015;SDS011;11172;51.698;-0.292;2022-08-19T00:34:24;1.65;;;1.00;;
22015;SDS011;11172;51.698;-0.292;2022-08-19T00:36:52;4.15;;;1.80;;
22015;SDS011;11172;51.698;-0.292;2022-08-19T00:39:18;2.38;;;1.65;;
22015;SDS011;11172;51.698;-0.292;2022-08-19T00:41:45;2.15;;;1.17;;
22015;SDS011;11172;51.698;-0.292;2022-08-19T00:46:42;6.88;;;1.92;;
22015;SDS011;11172;51.698;-0.292;2022-08-19T00:49:12;2.95;;;1.35;;
22015;SDS011;11172;51.698;-0.292;2022-08-19T00:51:40;3.05;;;1.40;;
22015;SDS011;11172;51.698;-0.292;2022-08-19T00:54:06;7.28;;;1.92;;
22015;SDS011;11172;51.698;-0.292;2022-08-19T00:56:34;2.53;;;1.73;;
22015;SDS011;11172;51.698;-0.292;2022-08-19T00:59:00;2.83;;;1.73;;
22015;SDS011;11172;51.698;-0.292;2022-08-19T01:01:27;1.77;;;1.35;;
22015;SDS011;11172;51.698;-0.292;2022-08-19T01:03:53;3.88;;;1.40;;
22015;SDS011;11172;51.698;-0.292;2022-08-19T01:06:19;5.93;;;1.80;;
22015;SDS011;11172;51.698;-0.292;2022-08-19T01:08:45;2.10;;;1.83;;
22015;SDS011;11172;51.698;-0.292;2022-08-19T01:11:11;2.55;;;1.95;;
22015;SDS011;11172;51.698;-0.292;2022-08-19T01:13:38;6.35;;;2.10;;
22015;SDS011;11172;51.698;-0.292;2022-08-19T01:16:05;3.40;;;1.70;;
22015;SDS011;11172;51.698;-0.292;2022-08-19T01:18:32;3.63;;;1.80;;
22015;SDS011;11172;51.698;-0.292;2022-08-19T01:21:02;2.03;;;1.83;;
22015;SDS011;11172;51.698;-0.292;2022-08-19T01:23:31;3.42;;;2.03;;
22015;SDS011;11172;51.698;-0.292;2022-08-19T01:26:19;5.30;;;2.25;;
22015;SDS011;11172;51.698;-0.292;2022-08-19T01:28:46;4.45;;;2.00;;
22015;SDS011;11172;51.698;-0.292;2022-08-19T01:31:15;4.25;;;2.03;;
22015;SDS011;11172;51.698;-0.292;2022-08-19T01:33:41;4.32;;;2.38;;
22015;SDS011;11172;51.698;-0.292;2022-08-19T01:36:08;3.47;;;1.80;;
22015;SDS011;11172;51.698;-0.292;2022-08-19T01:38:36;2.63;;;2.13;;
22015;SDS011;11172;51.698;-0.292;2022-08-19T01:41:02;2.28;;;2.08;;
22015;SDS011;11172;51.698;-0.292;2022-08-19T01:43:28;3.10;;;1.92;;
22015;SDS011;11172;51.698;-0.292;2022-08-19T01:45:54;3.80;;;1.80;;
22015;SDS011;11172;51.698;-0.292;2022-08-19T01:48:20;2.85;;;2.05;;
22015;SDS011;11172;51.698;-0.292;2022-08-19T01:50:47;3.47;;;1.77;;
22015;SDS011;11172;51.698;-0.292;2022-08-19T01:53:13;5.22;;;2.38;;
22015;SDS011;11172;51.698;-0.292;2022-08-19T01:55:40;5.68;;;2.53;;
22015;SDS011;11172;51.698;-0.292;2022-08-19T01:58:29;7.40;;;2.25;;
22015;SDS011;11172;51.698;-0.292;2022-08-19T02:00:55;2.47;;;2.03;;
22015;SDS011;11172;51.698;-0.292;2022-08-19T02:03:21;3.65;;;1.83;;
22015;SDS011;11172;51.698;-0.292;2022-08-19T02:05:47;4.85;;;2.42;;
22015;SDS011;11172;51.698;-0.292;2022-08-19T02:08:15;6.18;;;2.45;;
22015;SDS011;11172;51.698;-0.292;2022-08-19T02:10:42;4.15;;;1.65;;
22015;SDS011;11172;51.698;-0.292;2022-08-19T02:13:08;2.53;;;2.13;;
22015;SDS011;11172;51.698;-0.292;2022-08-19T02:15:34;6.65;;;1.98;;
22015;SDS011;11172;51.698;-0.292;2022-08-19T02:18:01;2.88;;;2.03;;
22015;SDS011;11172;51.698;-0.292;2022-08-19T02:20:27;2.65;;;2.10;;
22015;SDS011;11172;51.698;-0.292;2022-08-19T02:22:53;4.35;;;2.20;;
22015;SDS011;11172;51.698;-0.292;2022-08-19T02:25:19;3.58;;;2.22;;
22015;SDS011;11172;51.698;-0.292;2022-08-19T02:27:45;3.47;;;2.28;;
22015;SDS011;11172;51.698;-0.292;2022-08-19T02:30:13;2.92;;;1.85;;
22015;SDS011;11172;51.698;-0.292;2022-08-19T02:32:40;4.07;;;2.08;;
22015;SDS011;11172;51.698;-0.292;2022-08-19T02:35:06;6.82;;;2.80;;
22015;SDS011;11172;51.698;-0.292;2022-08-19T02:37:33;2.70;;;2.17;;
22015;SDS011;11172;51.698;-0.292;2022-08-19T02:40:18;6.13;;;2.42;;
22015;SDS011;11172;51.698;-0.292;2022-08-19T02:42:44;5.60;;;2.03;;
22015;SDS011;11172;51.698;-0.292;2022-08-19T02:45:10;9.20;;;2.45;;
22015;SDS011;11172;51.698;-0.292;2022-08-19T02:47:36;2.25;;;2.00;;
22015;SDS011;11172;51.698;-0.292;2022-08-19T02:50:03;5.70;;;2.53;;
22015;SDS011;11172;51.698;-0.292;2022-08-19T02:52:29;2.40;;;2.20;;
22015;SDS011;11172;51.698;-0.292;2022-08-19T02:54:55;3.70;;;1.88;;
22015;SDS011;11172;51.698;-0.292;2022-08-19T02:57:22;4.80;;;2.47;;
22015;SDS011;11172;51.698;-0.292;2022-08-19T02:59:48;4.63;;;2.42;;
22015;SDS011;11172;51.698;-0.292;2022-08-19T03:02:14;5.22;;;1.55;;
22015;SDS011;11172;51.698;-0.292;2022-08-19T03:04:40;5.53;;;2.08;;
22015;SDS011;11172;51.698;-0.292;2022-08-19T03:07:07;6.03;;;2.60;;
22015;SDS011;11172;51.698;-0.292;2022-08-19T03:09:33;6.53;;;2.30;;
22015;SDS011;11172;51.698;-0.292;2022-08-19T03:12:02;5.05;;;2.40;;
22015;SDS011;11172;51.698;-0.292;2022-08-19T03:14:30;6.03;;;2.47;;
22015;SDS011;11172;51.698;-0.292;2022-08-19T03:16:56;4.43;;;2.70;;
22015;SDS011;11172;51.698;-0.292;2022-08-19T03:19:22;4.03;;;2.40;;
22015;SDS011;11172;51.698;-0.292;2022-08-19T03:21:48;3.65;;;2.28;;
22015;SDS011;11172;51.698;-0.292;2022-08-19T03:24:16;2.47;;;1.98;;
22015;SDS011;11172;51.698;-0.292;2022-08-19T03:26:43;6.18;;;2.90;;
22015;SDS011;11172;51.698;-0.292;2022-08-19T03:29:10;6.25;;;2.45;;
22015;SDS011;11172;51.698;-0.292;2022-08-19T03:31:36;2.88;;;2.35;;
22015;SDS011;11172;51.698;-0.292;2022-08-19T03:34:03;5.63;;;2.53;;
22015;SDS011;11172;51.698;-0.292;2022-08-19T03:36:29;3.00;;;2.20;;
22015;SDS011;11172;51.698;-0.292;2022-08-19T03:38:56;6.70;;;2.88;;
22015;SDS011;11172;51.698;-0.292;2022-08-19T03:41:27;3.58;;;2.33;;
22015;SDS011;11172;51.698;-0.292;2022-08-19T03:43:53;4.78;;;2.70;;
22015;SDS011;11172;51.698;-0.292;2022-08-19T03:46:21;3.50;;;2.70;;
22015;SDS011;11172;51.698;-0.292;2022-08-19T03:48:48;5.60;;;2.65;;
22015;SDS011;11172;51.698;-0.292;2022-08-19T03:51:19;4.38;;;2.80;;
22015;SDS011;11172;51.698;-0.292;2022-08-19T03:53:45;4.68;;;2.55;;
22015;SDS011;11172;51.698;-0.292;2022-08-19T03:56:11;8.10;;;2.90;;
22015;SDS011;11172;51.698;-0.292;2022-08-19T03:58:38;8.68;;;2.90;;
22015;SDS011;11172;51.698;-0.292;2022-08-19T04:01:07;3.60;;;2.47;;
22015;SDS011;11172;51.698;-0.292;2022-08-19T04:03:33;5.22;;;2.60;;
22015;SDS011;11172;51.698;-0.292;2022-08-19T04:06:08;3.15;;;2.33;;
22015;SDS011;11172;51.698;-0.292;2022-08-19T04:08:34;2.45;;;2.22;;
22015;SDS011;11172;51.698;-0.292;2022-08-19T04:11:01;5.20;;;2.67;;
22015;SDS011;11172;51.698;-0.292;2022-08-19T04:13:26;4.65;;;2.38;;
22015;SDS011;11172;51.698;-0.292;2022-08-19T04:15:52;3.60;;;2.45;;
22015;SDS011;11172;51.698;-0.292;2022-08-19T04:18:18;3.22;;;2.55;;
22015;SDS011;11172;51.698;-0.292;2022-08-19T04:20:45;3.30;;;1.90;;
22015;SDS011;11172;51.698;-0.292;2022-08-19T04:23:13;2.03;;;1.90;;
22015;SDS011;11172;51.698;-0.292;2022-08-19T04:25:40;3.97;;;2.70;;
22015;SDS011;11172;51.698;-0.292;2022-08-19T04:28:07;6.43;;;2.35;;
22015;SDS011;11172;51.698;-0.292;2022-08-19T04:30:45;5.07;;;2.10;;
22015;SDS011;11172;51.698;-0.292;2022-08-19T04:33:12;4.50;;;1.95;;
22015;SDS011;11172;51.698;-0.292;2022-08-19T04:35:40;3.00;;;1.90;;
22015;SDS011;11172;51.698;-0.292;2022-08-19T04:38:07;6.18;;;2.13;;
22015;SDS011;11172;51.698;-0.292;2022-08-19T04:40:34;3.78;;;2.05;;
22015;SDS011;11172;51.698;-0.292;2022-08-19T04:43:18;1.70;;;1.60;;
22015;SDS011;11172;51.698;-0.292;2022-08-19T04:45:45;3.60;;;1.30;;
22015;SDS011;11172;51.698;-0.292;2022-08-19T04:48:11;0.95;;;0.95;;
22015;SDS011;11172;51.698;-0.292;2022-08-19T04:50:41;4.88;;;1.60;;
22015;SDS011;11172;51.698;-0.292;2022-08-19T04:53:08;1.30;;;1.20;;
22015;SDS011;11172;51.698;-0.292;2022-08-19T04:55:34;1.55;;;1.38;;
22015;SDS011;11172;51.698;-0.292;2022-08-19T04:58:00;4.28;;;1.73;;
22015;SDS011;11172;51.698;-0.292;2022-08-19T05:00:27;3.67;;;1.52;;
22015;SDS011;11172;51.698;-0.292;2022-08-19T05:02:53;4.68;;;1.35;;
22015;SDS011;11172;51.698;-0.292;2022-08-19T05:05:19;2.60;;;1.48;;
22015;SDS011;11172;51.698;-0.292;2022-08-19T05:07:45;2.05;;;1.45;;
22015;SDS011;11172;51.698;-0.292;2022-08-19T05:10:11;1.75;;;1.30;;
22015;SDS011;11172;51.698;-0.292;2022-08-19T05:12:37;2.40;;;1.80;;
22015;SDS011;11172;51.698;-0.292;2022-08-19T05:15:04;1.45;;;1.35;;
22015;SDS011;11172;51.698;-0.292;2022-08-19T05:17:30;1.67;;;1.42;;
22015;SDS011;11172;51.698;-0.292;2022-08-19T05:19:56;2.78;;;1.50;;
22015;SDS011;11172;51.698;-0.292;2022-08-19T05:22:43;3.50;;;1.35;;
22015;SDS011;11172;51.698;-0.292;2022-08-19T05:25:10;4.22;;;1.20;;
22015;SDS011;11172;51.698;-0.292;2022-08-19T05:27:37;3.50;;;1.33;;
22015;SDS011;11172;51.698;-0.292;2022-08-19T05:30:03;1.75;;;1.27;;
22015;SDS011;11172;51.698;-0.292;2022-08-19T05:32:30;1.65;;;1.17;;
22015;SDS011;11172;51.698;-0.292;2022-08-19T05:34:56;1.42;;;1.33;;
22015;SDS011;11172;51.698;-0.292;2022-08-19T05:37:22;2.78;;;1.65;;
22015;SDS011;11172;51.698;-0.292;2022-08-19T05:39:51;1.60;;;1.50;;
22015;SDS011;11172;51.698;-0.292;2022-08-19T05:42:17;1.52;;;1.42;;
22015;SDS011;11172;51.698;-0.292;2022-08-19T05:44:44;2.22;;;1.30;;
22015;SDS011;11172;51.698;-0.292;2022-08-19T05:47:12;4.22;;;1.45;;
22015;SDS011;11172;51.698;-0.292;2022-08-19T05:49:40;3.92;;;1.50;;
22015;SDS011;11172;51.698;-0.292;2022-08-19T05:52:07;3.42;;;1.27;;
22015;SDS011;11172;51.698;-0.292;2022-08-19T05:54:36;1.33;;;1.23;;
22015;SDS011;11172;51.698;-0.292;2022-08-19T05:57:05;1.73;;;1.25;;
22015;SDS011;11172;51.698;-0.292;2022-08-19T05:59:31;5.57;;;1.13;;
22015;SDS011;11172;51.698;-0.292;2022-08-19T06:01:57;1.70;;;1.17;;
22015;SDS011;11172;51.698;-0.292;2022-08-19T06:04:25;1.40;;;1.02;;
22015;SDS011;11172;51.698;-0.292;2022-08-19T06:06:52;1.15;;;1.00;;
22015;SDS011;11172;51.698;-0.292;2022-08-19T06:09:19;2.17;;;1.13;;
22015;SDS011;11172;51.698;-0.292;2022-08-19T06:11:49;3.03;;;1.13;;
22015;SDS011;11172;51.698;-0.292;2022-08-19T06:14:20;1.67;;;1.42;;
22015;SDS011;11172;51.698;-0.292;2022-08-19T06:16:47;1.65;;;1.02;;
22015;SDS011;11172;51.698;-0.292;2022-08-19T06:19:15;1.13;;;0.77;;
22015;SDS011;11172;51.698;-0.292;2022-08-19T06:21:42;1.77;;;1.20;;
22015;SDS011;11172;51.698;-0.292;2022-08-19T06:24:10;1.15;;;0.93;;
22015;SDS011;11172;51.698;-0.292;2022-08-19T06:26:38;1.38;;;1.20;;
22015;SDS011;11172;51.698;-0.292;2022-08-19T06:29:04;0.90;;;0.90;;
22015;SDS011;11172;51.698;-0.292;2022-08-19T06:31:31;0.82;;;0.77;;
22015;SDS011;11172;51.698;-0.292;2022-08-19T06:33:59;0.60;;;0.60;;
22015;SDS011;11172;51.698;-0.292;2022-08-19T06:36:28;2.67;;;0.88;;
22015;SDS011;11172;51.698;-0.292;2022-08-19T06:39:00;9.40;;;1.00;;
22015;SDS011;11172;51.698;-0.292;2022-08-19T06:41:26;0.77;;;0.75;;
22015;SDS011;11172;51.698;-0.292;2022-08-19T06:43:53;0.75;;;0.75;;
22015;SDS011;11172;51.698;-0.292;2022-08-19T06:46:19;1.45;;;0.80;;
22015;SDS011;11172;51.698;-0.292;2022-08-19T06:48:46;1.60;;;1.08;;
22015;SDS011;11172;51.698;-0.292;2022-08-19T06:51:13;0.85;;;0.85;;
22015;SDS011;11172;51.698;-0.292;2022-08-19T06:53:40;3.33;;;0.85;;
22015;SDS011;11172;51.698;-0.292;2022-08-19T06:56:11;1.48;;;0.88;;
22015;SDS011;11172;51.698;-0.292;2022-08-19T06:58:37;0.65;;;0.57;;
22015;SDS011;11172;51.698;-0.292;2022-08-19T07:01:03;1.00;;;0.77;;
22015;SDS011;11172;51.698;-0.292;2022-08-19T07:03:30;0.70;;;0.70;;
22015;SDS011;11172;51.698;-0.292;2022-08-19T07:05:57;0.65;;;0.47;;
22015;SDS011;11172;51.698;-0.292;2022-08-19T07:08:24;0.50;;;0.43;;
22015;SDS011;11172;51.698;-0.292;2022-08-19T07:10:51;0.52;;;0.52;;
22015;SDS011;11172;51.698;-0.292;2022-08-19T07:13:18;1.85;;;0.65;;
22015;SDS011;11172;51.698;-0.292;2022-08-19T07:15:44;0.73;;;0.70;;
22015;SDS011;11172;51.698;-0.292;2022-08-19T07:18:11;2.85;;;0.70;;
22015;SDS011;11172;51.698;-0.292;2022-08-19T07:20:38;2.55;;;0.60;;
22015;SDS011;11172;51.698;-0.292;2022-08-19T07:23:04;2.35;;;0.93;;
22015;SDS011;11172;51.698;-0.292;2022-08-19T07:25:30;0.63;;;0.63;;
22015;SDS011;11172;51.698;-0.292;2022-08-19T07:27:56;1.67;;;0.75;;
22015;SDS011;11172;51.698;-0.292;2022-08-19T07:30:22;1.63;;;0.70;;
22015;SDS011;11172;51.698;-0.292;2022-08-19T07:32:49;1.15;;;0.63;;
22015;SDS011;11172;51.698;-0.292;2022-08-19T07:35:17;0.90;;;0.80;;
22015;SDS011;11172;51.698;-0.292;2022-08-19T07:37:44;2.78;;;0.70;;
22015;SDS011;11172;51.698;-0.292;2022-08-19T07:40:11;2.22;;;1.05;;
22015;SDS011;11172;51.698;-0.292;2022-08-19T07:42:37;3.28;;;0.88;;
22015;SDS011;11172;51.698;-0.292;2022-08-19T07:45:04;2.50;;;0.95;;
22015;SDS011;11172;51.698;-0.292;2022-08-19T07:47:30;2.10;;;0.65;;
22015;SDS011;11172;51.698;-0.292;2022-08-19T07:49:56;2.10;;;0.65;;
22015;SDS011;11172;51.698;-0.292;2022-08-19T07:52:22;1.13;;;0.55;;
22015;SDS011;11172;51.698;-0.292;2022-08-19T07:54:48;1.98;;;0.63;;
22015;SDS011;11172;51.698;-0.292;2022-08-19T07:57:15;5.40;;;1.52;;
22015;SDS011;11172;51.698;-0.292;2022-08-19T07:59:41;0.90;;;0.60;;
22015;SDS011;11172;51.698;-0.292;2022-08-19T08:02:08;1.17;;;0.80;;
22015;SDS011;11172;51.698;-0.292;2022-08-19T08:04:34;1.42;;;0.75;;
22015;SDS011;11172;51.698;-0.292;2022-08-19T08:07:19;3.60;;;1.33;;
22015;SDS011;11172;51.698;-0.292;2022-08-19T08:10:05;0.60;;;0.60;;
22015;SDS011;11172;51.698;-0.292;2022-08-19T08:12:33;2.75;;;1.00;;
22015;SDS011;11172;51.698;-0.292;2022-08-19T08:15:00;0.88;;;0.80;;
22015;SDS011;11172;51.698;-0.292;2022-08-19T08:17:28;2.63;;;0.88;;
22015;SDS011;11172;51.698;-0.292;2022-08-19T08:19:54;1.50;;;0.95;;
22015;SDS011;11172;51.698;-0.292;2022-08-19T08:22:22;1.23;;;0.88;;
22015;SDS011;11172;51.698;-0.292;2022-08-19T08:25:12;1.60;;;0.75;;
22015;SDS011;11172;51.698;-0.292;2022-08-19T08:27:38;3.53;;;1.00;;
22015;SDS011;11172;51.698;-0.292;2022-08-19T08:30:06;0.95;;;0.80;;
22015;SDS011;11172;51.698;-0.292;2022-08-19T08:32:34;2.00;;;0.90;;
22015;SDS011;11172;51.698;-0.292;2022-08-19T08:35:00;5.93;;;1.23;;
22015;SDS011;11172;51.698;-0.292;2022-08-19T08:37:26;4.85;;;1.05;;
22015;SDS011;11172;51.698;-0.292;2022-08-19T08:39:52;2.00;;;1.20;;
22015;SDS011;11172;51.698;-0.292;2022-08-19T08:47:23;2.88;;;1.08;;
22015;SDS011;11172;51.698;-0.292;2022-08-19T08:49:55;6.25;;;0.88;;
22015;SDS011;11172;51.698;-0.292;2022-08-19T08:52:23;4.78;;;1.27;;
22015;SDS011;11172;51.698;-0.292;2022-08-19T08:54:51;3.53;;;0.90;;
22015;SDS011;11172;51.698;-0.292;2022-08-19T08:57:44;5.65;;;1.42;;
22015;SDS011;11172;51.698;-0.292;2022-08-19T09:00:06;2.22;;;1.05;;
22015;SDS011;11172;51.698;-0.292;2022-08-19T09:02:33;1.83;;;1.08;;
22015;SDS011;11172;51.698;-0.292;2022-08-19T09:04:59;2.55;;;1.17;;
22015;SDS011;11172;51.698;-0.292;2022-08-19T09:07:34;5.82;;;1.30;;
22015;SDS011;11172;51.698;-0.292;2022-08-19T09:13:36;4.22;;;1.05;;
22015;SDS011;11172;51.698;-0.292;2022-08-19T09:15:30;4.43;;;1.30;;
22015;SDS011;11172;51.698;-0.292;2022-08-19T09:17:59;1.55;;;1.10;;
22015;SDS011;11172;51.698;-0.292;2022-08-19T09:20:26;3.33;;;1.00;;
22015;SDS011;11172;51.698;-0.292;2022-08-19T09:22:53;3.13;;;1.30;;
22015;SDS011;11172;51.698;-0.292;2022-08-19T09:25:20;2.53;;;1.40;;
22015;SDS011;11172;51.698;-0.292;2022-08-19T09:27:47;1.65;;;1.13;;
22015;SDS011;11172;51.698;-0.292;2022-08-19T09:30:16;4.18;;;1.45;;
22015;SDS011;11172;51.698;-0.292;2022-08-19T09:32:42;4.32;;;1.17;;
22015;SDS011;11172;51.698;-0.292;2022-08-19T09:35:10;2.60;;;1.27;;
22015;SDS011;11172;51.698;-0.292;2022-08-19T09:37:37;5.90;;;1.40;;
22015;SDS011;11172;51.698;-0.292;2022-08-19T09:40:03;3.53;;;1.33;;
22015;SDS011;11172;51.698;-0.292;2022-08-19T09:42:31;6.78;;;1.73;;
22015;SDS011;11172;51.698;-0.292;2022-08-19T09:44:57;3.30;;;1.20;;
22015;SDS011;11172;51.698;-0.292;2022-08-19T09:47:23;1.73;;;1.27;;
22015;SDS011;11172;51.698;-0.292;2022-08-19T09:49:49;4.47;;;1.52;;
22015;SDS011;11172;51.698;-0.292;2022-08-19T09:52:15;2.92;;;1.30;;
22015;SDS011;11172;51.698;-0.292;2022-08-19T09:54:42;4.13;;;1.00;;
22015;SDS011;11172;51.698;-0.292;2022-08-19T09:57:08;2.75;;;1.30;;
22015;SDS011;11172;51.698;-0.292;2022-08-19T09:59:34;8.60;;;1.13;;
22015;SDS011;11172;51.698;-0.292;2022-08-19T10:02:00;1.88;;;1.15;;
22015;SDS011;11172;51.698;-0.292;2022-08-19T10:04:26;5.38;;;1.30;;
22015;SDS011;11172;51.698;-0.292;2022-08-19T10:07:12;2.63;;;1.08;;
22015;SDS011;11172;51.698;-0.292;2022-08-19T10:09:38;3.97;;;1.45;;
22015;SDS011;11172;51.698;-0.292;2022-08-19T10:12:06;4.70;;;1.60;;
22015;SDS011;11172;51.698;-0.292;2022-08-19T10:14:32;4.05;;;1.05;;
22015;SDS011;11172;51.698;-0.292;2022-08-19T10:16:58;3.10;;;1.20;;
22015;SDS011;11172;51.698;-0.292;2022-08-19T10:19:25;2.55;;;1.35;;
22015;SDS011;11172;51.698;-0.292;2022-08-19T10:21:57;1.60;;;0.80;;
22015;SDS011;11172;51.698;-0.292;2022-08-19T10:24:23;2.30;;;1.40;;
22015;SDS011;11172;51.698;-0.292;2022-08-19T10:26:50;3.67;;;1.25;;
22015;SDS011;11172;51.698;-0.292;2022-08-19T10:29:16;4.78;;;1.30;;
22015;SDS011;11172;51.698;-0.292;2022-08-19T10:31:42;1.50;;;1.02;;
22015;SDS011;11172;51.698;-0.292;2022-08-19T10:34:08;4.68;;;1.38;;
22015;SDS011;11172;51.698;-0.292;2022-08-19T10:36:35;3.83;;;1.17;;
22015;SDS011;11172;51.698;-0.292;2022-08-19T10:39:03;3.05;;;1.33;;
22015;SDS011;11172;51.698;-0.292;2022-08-19T10:41:31;2.45;;;1.08;;
22015;SDS011;11172;51.698;-0.292;2022-08-19T10:43:59;2.38;;;1.20;;
22015;SDS011;11172;51.698;-0.292;2022-08-19T10:46:25;2.00;;;1.25;;
22015;SDS011;11172;51.698;-0.292;2022-08-19T10:48:52;2.95;;;1.30;;
22015;SDS011;11172;51.698;-0.292;2022-08-19T10:51:18;2.92;;;1.02;;
22015;SDS011;11172;51.698;-0.292;2022-08-19T10:54:03;1.08;;;0.90;;
22015;SDS011;11172;51.698;-0.292;2022-08-19T10:56:29;7.80;;;1.38;;
22015;SDS011;11172;51.698;-0.292;2022-08-19T10:59:15;7.57;;;1.67;;
22015;SDS011;11172;51.698;-0.292;2022-08-19T11:01:42;7.10;;;1.92;;
22015;SDS011;11172;51.698;-0.292;2022-08-19T11:04:08;8.48;;;1.45;;
22015;SDS011;11172;51.698;-0.292;2022-08-19T11:06:36;5.13;;;1.40;;
22015;SDS011;11172;51.698;-0.292;2022-08-19T11:09:03;10.57;;;1.98;;
22015;SDS011;11172;51.698;-0.292;2022-08-19T11:11:30;5.57;;;2.10;;
22015;SDS011;11172;51.698;-0.292;2022-08-19T11:13:57;5.90;;;1.80;;
22015;SDS011;11172;51.698;-0.292;2022-08-19T11:16:23;3.58;;;1.73;;
22015;SDS011;11172;51.698;-0.292;2022-08-19T11:18:52;3.70;;;1.33;;
22015;SDS011;11172;51.698;-0.292;2022-08-19T11:23:45;7.90;;;1.85;;
22015;SDS011;11172;51.698;-0.292;2022-08-19T11:26:12;4.10;;;1.02;;
22015;SDS011;11172;51.698;-0.292;2022-08-19T11:28:38;6.40;;;1.67;;
22015;SDS011;11172;51.698;-0.292;2022-08-19T11:31:08;4.22;;;1.50;;
22015;SDS011;11172;51.698;-0.292;2022-08-19T11:33:35;5.00;;;1.52;;
22015;SDS011;11172;51.698;-0.292;2022-08-19T11:36:01;6.13;;;2.30;;
22015;SDS011;11172;51.698;-0.292;2022-08-19T11:38:27;7.88;;;1.55;;
22015;SDS011;11172;51.698;-0.292;2022-08-19T11:40:54;11.02;;;1.95;;
22015;SDS011;11172;51.698;-0.292;2022-08-19T11:43:21;4.03;;;1.10;;
22015;SDS011;11172;51.698;-0.292;2022-08-19T11:45:46;3.05;;;1.65;;
22015;SDS011;11172;51.698;-0.292;2022-08-19T11:48:13;4.25;;;1.30;;
22015;SDS011;11172;51.698;-0.292;2022-08-19T11:50:39;4.82;;;1.50;;
22015;SDS011;11172;51.698;-0.292;2022-08-19T11:53:07;4.45;;;1.52;;
22015;SDS011;11172;51.698;-0.292;2022-08-19T11:55:36;3.97;;;1.35;;
22015;SDS011;11172;51.698;-0.292;2022-08-19T11:58:03;7.10;;;1.40;;
22015;SDS011;11172;51.698;-0.292;2022-08-19T12:00:31;3.33;;;1.50;;
22015;SDS011;11172;51.698;-0.292;2022-08-19T12:02:59;2.72;;;1.48;;
22015;SDS011;11172;51.698;-0.292;2022-08-19T12:05:24;3.80;;;1.67;;
22015;SDS011;11172;51.698;-0.292;2022-08-19T12:07:50;4.40;;;1.60;;
22015;SDS011;11172;51.698;-0.292;2022-08-19T12:10:16;8.38;;;2.60;;
22015;SDS011;11172;51.698;-0.292;2022-08-19T12:12:42;7.00;;;1.60;;
22015;SDS011;11172;51.698;-0.292;2022-08-19T12:15:10;4.45;;;1.65;;
22015;SDS011;11172;51.698;-0.292;2022-08-19T12:17:37;4.93;;;1.80;;
22015;SDS011;11172;51.698;-0.292;2022-08-19T12:20:03;6.10;;;0.90;;
22015;SDS011;11172;51.698;-0.292;2022-08-19T12:22:30;6.43;;;1.75;;
22015;SDS011;11172;51.698;-0.292;2022-08-19T12:24:56;4.50;;;1.42;;
22015;SDS011;11172;51.698;-0.292;2022-08-19T12:27:23;5.35;;;1.40;;
22015;SDS011;11172;51.698;-0.292;2022-08-19T12:29:49;2.63;;;1.30;;
22015;SDS011;11172;51.698;-0.292;2022-08-19T12:32:15;5.43;;;1.20;;
22015;SDS011;11172;51.698;-0.292;2022-08-19T12:34:41;2.17;;;1.23;;
22015;SDS011;11172;51.698;-0.292;2022-08-19T12:37:07;5.63;;;1.40;;
22015;SDS011;11172;51.698;-0.292;2022-08-19T12:39:39;4.95;;;1.38;;
22015;SDS011;11172;51.698;-0.292;2022-08-19T12:42:06;4.00;;;1.25;;
22015;SDS011;11172;51.698;-0.292;2022-08-19T12:44:33;8.80;;;2.00;;
22015;SDS011;11172;51.698;-0.292;2022-08-19T12:46:59;1.98;;;1.08;;
22015;SDS011;11172;51.698;-0.292;2022-08-19T12:49:30;7.65;;;1.52;;
22015;SDS011;11172;51.698;-0.292;2022-08-19T12:51:59;2.03;;;1.02;;
22015;SDS011;11172;51.698;-0.292;2022-08-19T12:54:26;4.57;;;1.48;;
22015;SDS011;11172;51.698;-0.292;2022-08-19T12:56:52;4.38;;;1.50;;
22015;SDS011;11172;51.698;-0.292;2022-08-19T12:59:18;2.10;;;1.05;;
22015;SDS011;11172;51.698;-0.292;2022-08-19T13:01:45;3.50;;;1.38;;
22015;SDS011;11172;51.698;-0.292;2022-08-19T13:04:11;3.88;;;1.55;;
22015;SDS011;11172;51.698;-0.292;2022-08-19T13:06:37;7.38;;;1.50;;
22015;SDS011;11172;51.698;-0.292;2022-08-19T13:09:03;10.63;;;0.68;;
22015;SDS011;11172;51.698;-0.292;2022-08-19T13:11:30;5.22;;;1.30;;
22015;SDS011;11172;51.698;-0.292;2022-08-19T13:13:59;7.75;;;1.70;;
22015;SDS011;11172;51.698;-0.292;2022-08-19T13:16:25;9.20;;;1.75;;
22015;SDS011;11172;51.698;-0.292;2022-08-19T13:18:52;11.80;;;1.55;;
22015;SDS011;11172;51.698;-0.292;2022-08-19T13:21:19;3.20;;;1.10;;
22015;SDS011;11172;51.698;-0.292;2022-08-19T13:23:46;2.72;;;1.10;;
22015;SDS011;11172;51.698;-0.292;2022-08-19T13:26:13;2.35;;;1.23;;
22015;SDS011;11172;51.698;-0.292;2022-08-19T13:28:39;4.03;;;1.20;;
22015;SDS011;11172;51.698;-0.292;2022-08-19T13:31:25;4.28;;;1.48;;
22015;SDS011;11172;51.698;-0.292;2022-08-19T13:34:12;6.38;;;1.13;;
22015;SDS011;11172;51.698;-0.292;2022-08-19T13:36:39;2.80;;;1.42;;
22015;SDS011;11172;51.698;-0.292;2022-08-19T13:39:05;5.40;;;1.05;;
22015;SDS011;11172;51.698;-0.292;2022-08-19T13:41:33;6.05;;;2.05;;
22015;SDS011;11172;51.698;-0.292;2022-08-19T13:44:00;7.85;;;1.85;;
22015;SDS011;11172;51.698;-0.292;2022-08-19T13:46:26;3.13;;;1.48;;
22015;SDS011;11172;51.698;-0.292;2022-08-19T13:48:55;5.10;;;1.23;;
22015;SDS011;11172;51.698;-0.292;2022-08-19T13:51:21;7.97;;;1.63;;
22015;SDS011;11172;51.698;-0.292;2022-08-19T13:53:47;3.47;;;1.23;;
22015;SDS011;11172;51.698;-0.292;2022-08-19T13:56:15;5.78;;;1.65;;
22015;SDS011;11172;51.698;-0.292;2022-08-19T13:58:41;3.08;;;0.90;;
22015;SDS011;11172;51.698;-0.292;2022-08-19T14:01:07;2.17;;;0.93;;
22015;SDS011;11172;51.698;-0.292;2022-08-19T14:03:34;2.78;;;0.80;;
22015;SDS011;11172;51.698;-0.292;2022-08-19T14:06:00;4.25;;;1.05;;
22015;SDS011;11172;51.698;-0.292;2022-08-19T14:08:26;11.43;;;1.38;;
22015;SDS011;11172;51.698;-0.292;2022-08-19T14:10:53;4.45;;;1.17;;
22015;SDS011;11172;51.698;-0.292;2022-08-19T14:13:20;7.97;;;1.20;;
22015;SDS011;11172;51.698;-0.292;2022-08-19T14:15:47;9.85;;;2.08;;
22015;SDS011;11172;51.698;-0.292;2022-08-19T14:18:13;4.28;;;1.98;;
22015;SDS011;11172;51.698;-0.292;2022-08-19T14:20:40;3.67;;;1.45;;
22015;SDS011;11172;51.698;-0.292;2022-08-19T14:23:07;2.92;;;1.20;;
22015;SDS011;11172;51.698;-0.292;2022-08-19T14:25:33;5.90;;;1.40;;
22015;SDS011;11172;51.698;-0.292;2022-08-19T14:27:59;3.45;;;1.05;;
22015;SDS011;11172;51.698;-0.292;2022-08-19T14:30:30;6.25;;;1.02;;
22015;SDS011;11172;51.698;-0.292;2022-08-19T14:32:57;3.13;;;1.30;;
22015;SDS011;11172;51.698;-0.292;2022-08-19T14:35:23;3.95;;;1.38;;
22015;SDS011;11172;51.698;-0.292;2022-08-19T14:37:51;3.60;;;1.25;;
22015;SDS011;11172;51.698;-0.292;2022-08-19T14:40:21;5.75;;;1.75;;
22015;SDS011;11172;51.698;-0.292;2022-08-19T14:42:50;8.63;;;1.67;;
22015;SDS011;11172;51.698;-0.292;2022-08-19T14:45:17;4.32;;;1.75;;
22015;SDS011;11172;51.698;-0.292;2022-08-19T14:47:43;6.60;;;1.25;;